createdAt,value
2019-06-08T00:03:35.117Z,26.4
2019-06-08T00:09:09.076Z,22.8
2019-06-08T00:14:43.118Z,21.5
2019-06-08T00:20:17.660Z,21.5
2019-06-08T00:25:50.774Z,19.2
2019-06-08T00:31:24.626Z,21.5
2019-06-08T00:36:58.572Z,25.1
2019-06-08T00:42:32.509Z,26.4
2019-06-08T00:48:06.345Z,22.8
2019-06-08T00:53:40.201Z,25.1
2019-06-08T00:59:14.133Z,21.5
2019-06-08T01:04:48.037Z,22.8
2019-06-08T01:10:21.829Z,15.6
2019-06-08T01:15:55.737Z,22.8
2019-06-08T01:21:30.003Z,25.1
2019-06-08T01:27:03.624Z,22.8
2019-06-08T01:32:37.448Z,23.9
2019-06-08T01:38:11.373Z,19.2
2019-06-08T01:43:45.348Z,21.5
2019-06-08T01:49:19.184Z,18
2019-06-08T01:54:53.075Z,20.4
2019-06-08T02:00:34.832Z,18
2019-06-08T02:06:00.894Z,20.4
2019-06-08T02:11:34.976Z,22.8
2019-06-08T02:17:08.747Z,18
2019-06-08T02:22:42.737Z,21.5
2019-06-08T02:28:16.629Z,20.4
2019-06-08T02:33:51.238Z,22.8
2019-06-08T02:39:24.555Z,32.3
2019-06-08T02:44:58.426Z,23.9
2019-06-08T02:50:33.019Z,20.4
2019-06-08T02:56:06.453Z,19.2
2019-06-08T03:01:40.804Z,21.5
2019-06-08T03:07:14.181Z,22.8
2019-06-08T03:12:48.068Z,26.4
2019-06-08T03:18:21.984Z,15.6
2019-06-08T03:23:55.914Z,18
2019-06-08T03:29:29.862Z,14.4
2019-06-08T03:35:03.690Z,15.6
2019-06-08T03:40:38.173Z,18
2019-06-08T03:46:11.467Z,16.8
2019-06-08T03:51:48.270Z,14.4
2019-06-08T03:57:19.034Z,14.4
2019-06-08T04:02:52.905Z,15.6
2019-06-08T04:08:26.616Z,11.9
2019-06-08T04:14:00.456Z,11.9
2019-06-08T04:19:34.185Z,8.4
2019-06-08T04:25:07.893Z,9.6
2019-06-08T04:30:42.968Z,14.4
2019-06-08T04:36:15.530Z,11.9
2019-06-08T04:41:50.864Z,14.4
2019-06-08T04:47:23.347Z,14.4
2019-06-08T04:52:57.265Z,11.9
2019-06-08T04:58:31.247Z,14.4
2019-06-08T05:04:05.594Z,11.9
2019-06-08T05:09:41.062Z,20.4
2019-06-08T05:15:14.362Z,13.2
2019-06-08T05:20:49.698Z,14.4
2019-06-08T05:26:23.207Z,15.6
2019-06-08T05:31:56.489Z,0
2019-06-08T05:37:30.630Z,16.8
2019-06-08T05:43:05.084Z,10.7
2019-06-08T05:48:39.782Z,14.4
2019-06-08T05:54:14.268Z,8.4
2019-06-08T05:59:50.195Z,13.2
2019-06-08T06:05:23.438Z,15.6
2019-06-08T06:10:58.203Z,13.2
2019-06-08T06:16:34.007Z,16.8
2019-06-08T06:22:08.006Z,13.2
2019-06-08T06:27:43.412Z,14.4
2019-06-08T06:33:17.795Z,15.6
2019-06-08T06:38:52.976Z,15.6
2019-06-08T06:44:28.118Z,20.4
2019-06-08T06:50:03.153Z,18
2019-06-08T06:55:38.402Z,13.2
2019-06-08T07:01:13.566Z,20.4
2019-06-08T07:06:50.104Z,18
2019-06-08T07:12:24.074Z,18
2019-06-08T07:17:59.299Z,23.9
2019-06-08T07:23:34.622Z,20.4
2019-06-08T07:29:09.934Z,20.4
2019-06-08T07:34:45.261Z,18
2019-06-08T07:40:25.098Z,34.8
2019-06-08T07:46:00.523Z,18
2019-06-08T07:51:35.895Z,23.9
2019-06-08T07:57:11.266Z,18
2019-06-08T08:02:48.028Z,18
2019-06-08T08:08:22.346Z,20.4
2019-06-08T08:13:59.079Z,22.8
2019-06-08T08:19:33.711Z,20.4
2019-06-08T08:25:09.315Z,20.4
2019-06-08T08:30:45.093Z,19.2
2019-06-08T08:36:20.982Z,25.1
2019-06-08T08:42:02.272Z,26.4
2019-06-08T08:47:32.480Z,23.9
2019-06-08T08:53:08.445Z,21.5
2019-06-08T08:58:44.046Z,23.9
2019-06-08T09:04:19.928Z,20.4
2019-06-08T09:09:58.391Z,25.1
2019-06-08T09:15:31.704Z,19.2
2019-06-08T09:21:08.333Z,20.4
2019-06-08T09:26:43.622Z,20.4
2019-06-08T09:32:19.634Z,21.5
2019-06-08T09:37:57.304Z,19.2
2019-06-08T09:43:31.625Z,21.5
2019-06-08T09:49:09.104Z,23.9
2019-06-08T09:54:43.505Z,22.8
2019-06-08T10:00:22.189Z,16.8
2019-06-08T10:05:56.610Z,21.5
2019-06-08T10:11:31.434Z,20.4
2019-06-08T10:17:08.853Z,22.8
2019-06-08T10:22:43.678Z,18
2019-06-08T10:28:21.659Z,19.2
2019-06-08T10:33:58.548Z,18
2019-06-08T10:39:32.283Z,18
2019-06-08T10:45:13.022Z,16.8
2019-06-08T10:50:49.271Z,20.4
2019-06-08T10:56:28.348Z,21.5
2019-06-08T11:02:04.935Z,18
2019-06-08T11:07:38.145Z,16.8
2019-06-08T11:13:15.032Z,15.6
2019-06-08T11:18:51.099Z,16.8
2019-06-08T11:24:28.916Z,16.8
2019-06-08T11:30:11.252Z,16.8
2019-06-08T11:35:40.013Z,20.4
2019-06-08T11:41:18.357Z,22.8
2019-06-08T11:46:52.580Z,16.8
2019-06-08T11:52:28.861Z,18
2019-06-08T11:58:05.230Z,13.2
2019-06-08T12:03:41.673Z,18
2019-06-08T12:09:18.944Z,15.6
2019-06-08T12:14:54.591Z,15.6
2019-06-08T12:20:31.102Z,18
2019-06-08T12:26:08.163Z,16.8
2019-06-08T12:31:44.305Z,18
2019-06-08T12:37:22.267Z,18
2019-06-08T12:42:59.285Z,15.6
2019-06-08T12:48:33.616Z,15.6
2019-06-08T12:54:11.422Z,21.5
2019-06-08T12:59:46.870Z,15.6
2019-06-08T13:05:23.488Z,15.6
2019-06-08T13:11:00.286Z,18
2019-06-08T13:16:38.179Z,20.4
2019-06-08T13:22:13.136Z,19.2
2019-06-08T13:27:49.682Z,18
2019-06-08T13:33:28.032Z,15.6
2019-06-08T13:39:09.683Z,18
2019-06-08T13:44:44.149Z,18
2019-06-08T13:55:58.293Z,16.8
2019-06-08T14:01:37.286Z,15.6
2019-06-08T14:07:11.863Z,11.9
2019-06-08T14:12:48.939Z,10.7
2019-06-08T14:18:29.642Z,15.6
2019-06-08T14:24:02.800Z,14.4
2019-06-08T14:29:39.747Z,16.8
2019-06-08T14:35:18.618Z,9.6
2019-06-08T14:40:52.975Z,8.4
2019-06-08T14:46:30.423Z,10.7
2019-06-08T14:52:07.909Z,10.7
2019-06-08T14:57:44.310Z,11.9
2019-06-08T15:03:21.441Z,9.6
2019-06-08T15:08:58.629Z,8.4
2019-06-08T15:14:38.358Z,10.7
2019-06-08T15:20:12.503Z,0
2019-06-08T15:25:49.651Z,9.6
2019-06-08T15:31:29.441Z,10.7
2019-06-08T15:42:42.802Z,9.6
2019-06-08T15:48:22.098Z,13.2
2019-06-08T15:53:57.894Z,9.6
2019-06-08T15:59:38.659Z,0
2019-06-08T16:05:10.915Z,8.4
2019-06-08T16:10:48.462Z,11.9
2019-06-08T16:16:26.972Z,16.8
2019-06-08T16:22:02.744Z,15.6
2019-06-08T16:27:39.571Z,14.4
2019-06-08T16:33:16.691Z,13.2
2019-06-08T16:38:53.246Z,13.2
2019-06-08T16:44:30.091Z,15.6
2019-06-08T16:50:06.866Z,13.2
2019-06-08T16:55:43.373Z,11.9
2019-06-08T17:01:20.210Z,13.2
2019-06-08T17:06:56.994Z,11.9
2019-06-08T17:12:34.719Z,14.4
2019-06-08T17:18:10.376Z,13.2
2019-06-08T17:23:46.881Z,13.2
2019-06-08T17:29:23.281Z,14.4
2019-06-08T17:34:59.594Z,11.9
2019-06-08T17:40:35.944Z,13.2
2019-06-08T17:46:12.060Z,11.9
2019-06-08T17:51:48.084Z,8.4
2019-06-08T17:57:24.166Z,10.7
2019-06-08T18:03:00.557Z,8.4
2019-06-08T18:08:40.529Z,18
2019-06-08T18:14:12.346Z,16.8
2019-06-08T18:19:49.581Z,14.4
2019-06-08T18:25:23.660Z,8.4
2019-06-08T18:30:58.556Z,0
2019-06-08T18:36:34.624Z,0
2019-06-08T18:42:08.723Z,14.4
2019-06-08T18:47:43.964Z,14.4
2019-06-08T18:53:19.336Z,13.2
2019-06-08T18:58:54.004Z,14.4
2019-06-08T19:04:30.742Z,15.6
2019-06-08T19:10:03.661Z,14.4
2019-06-08T19:15:41.811Z,15.6
2019-06-08T19:21:12.972Z,15.6
2019-06-08T19:26:48.909Z,15.6
2019-06-08T19:32:21.970Z,13.2
2019-06-08T19:37:58.282Z,9.6
2019-06-08T19:43:30.524Z,8.4
2019-06-08T19:49:04.186Z,4.8
2019-06-08T19:54:41.959Z,5.9
2019-06-08T20:00:12.440Z,15.6
2019-06-08T20:05:50.521Z,22.8
2019-06-08T20:11:21.353Z,19.2
2019-06-08T20:16:57.767Z,16.8
2019-06-08T20:22:30.157Z,19.2
2019-06-08T20:28:04.585Z,20.4
2019-06-08T20:33:39.016Z,18
2019-06-08T20:39:13.501Z,23.9
2019-06-08T20:44:49.009Z,19.2
2019-06-08T20:50:22.250Z,22.8
2019-06-08T20:55:57.187Z,19.2
2019-06-08T21:01:31.058Z,16.8
2019-06-08T21:07:07.979Z,20.4
2019-06-08T21:12:39.831Z,19.2
2019-06-08T21:18:14.257Z,20.4
2019-06-08T21:23:51.475Z,13.2
2019-06-08T21:29:22.842Z,10.7
2019-06-08T21:34:59.863Z,10.7
2019-06-08T21:40:31.239Z,8.4
2019-06-08T21:46:04.589Z,0
2019-06-08T21:51:37.938Z,0
2019-06-08T21:57:11.231Z,0
2019-06-08T22:02:47.814Z,8.4
2019-06-08T22:08:19.496Z,10.7
2019-06-08T22:13:54.674Z,11.9
2019-06-08T22:19:27.864Z,13.2
2019-06-08T22:25:02.036Z,10.7
2019-06-08T22:30:42.453Z,9.6
2019-06-08T22:36:10.385Z,9.6
2019-06-08T22:41:44.494Z,9.6
2019-06-08T22:47:18.600Z,9.6
2019-06-08T22:52:53.495Z,0
2019-06-08T22:58:27.545Z,0
2019-06-08T23:04:00.827Z,0
2019-06-08T23:09:31.666Z,0
2019-06-08T23:15:07.248Z,0
2019-06-08T23:20:38.043Z,0
2019-06-08T23:26:11.174Z,0
2019-06-08T23:31:44.395Z,0
2019-06-08T23:37:18.233Z,0
2019-06-08T23:42:50.540Z,0
2019-06-08T23:48:23.713Z,0
2019-06-08T23:53:58.666Z,0
2019-06-08T23:59:29.765Z,0
